Time;durP1;ratioP1;P1;durP2;ratioP2;P2;SDS_P1;SDS_P2;PMS_P1;PMS_P2;Temp;Humidity;BMP_temperature;BMP_pressure;BME280_temperature;BME280_humidity;BME280_pressure;Samples;Min_cycle;Max_cycle;Signal;HPM_P1;HPM_P2
2021/05/30 00:01:55;;;;;;;12.30;8.43;;;8.10;99.90;;;;;;5051733;28;20442;-76
2021/05/30 00:04:21;;;;;;;7.93;7.17;;;8.10;99.90;;;;;;5047170;28;20427;-76
2021/05/30 00:06:48;;;;;;;11.73;7.83;;;8.00;99.90;;;;;;5051091;28;20435;-75
2021/05/30 00:09:14;;;;;;;13.23;7.00;;;8.00;99.90;;;;;;5051121;28;20446;-75
2021/05/30 00:11:40;;;;;;;10.43;7.20;;;7.90;99.90;;;;;;5048069;28;20439;-75
2021/05/30 00:14:06;;;;;;;10.60;6.60;;;7.90;99.90;;;;;;5049948;28;20547;-75
2021/05/30 00:16:33;;;;;;;9.77;8.40;;;7.90;99.90;;;;;;5049616;28;20504;-75
2021/05/30 00:19:00;;;;;;;7.73;6.83;;;7.90;99.90;;;;;;5050913;28;20435;-75
2021/05/30 00:21:26;;;;;;;11.83;7.80;;;7.80;99.90;;;;;;5052938;28;20435;-75
2021/05/30 00:23:52;;;;;;;13.10;8.70;;;7.80;99.90;;;;;;5052966;28;20910;-76
2021/05/30 00:26:18;;;;;;;10.40;7.77;;;7.80;99.90;;;;;;5050510;28;20527;-75
2021/05/30 00:28:44;;;;;;;11.00;7.80;;;7.80;99.90;;;;;;5050978;28;20192;-75
2021/05/30 00:31:09;;;;;;;9.70;8.00;;;7.70;99.90;;;;;;5049724;28;20443;-75
2021/05/30 00:33:35;;;;;;;10.63;7.70;;;7.70;99.90;;;;;;5046614;28;20277;-76
2021/05/30 00:36:01;;;;;;;13.00;10.40;;;7.60;99.90;;;;;;5039990;28;20204;-75
2021/05/30 00:38:26;;;;;;;11.37;8.00;;;7.50;99.90;;;;;;5033954;28;20289;-75
2021/05/30 00:40:53;;;;;;;9.97;8.80;;;7.50;99.90;;;;;;5052936;28;20173;-75
2021/05/30 00:43:19;;;;;;;17.80;11.20;;;7.50;99.90;;;;;;5050836;28;20188;-75
2021/05/30 00:45:46;;;;;;;11.70;8.83;;;7.40;99.90;;;;;;5050190;28;20443;-75
2021/05/30 00:48:11;;;;;;;13.50;9.27;;;7.40;99.90;;;;;;5050241;28;20185;-76
2021/05/30 00:50:37;;;;;;;10.50;7.90;;;7.30;99.90;;;;;;5050583;28;20492;-75
2021/05/30 00:53:05;;;;;;;9.97;6.80;;;7.30;99.90;;;;;;5044441;28;20213;-75
2021/05/30 00:55:31;;;;;;;8.40;7.23;;;7.30;99.90;;;;;;5052561;28;20460;-76
2021/05/30 00:57:57;;;;;;;12.13;8.10;;;7.30;99.90;;;;;;5052568;28;20439;-75
2021/05/30 01:00:24;;;;;;;7.67;6.97;;;7.30;99.90;;;;;;5054262;28;20482;-75
2021/05/30 01:02:49;;;;;;;9.83;7.83;;;7.20;99.90;;;;;;5050203;28;20557;-75
2021/05/30 01:05:15;;;;;;;8.60;6.27;;;7.20;99.90;;;;;;5052556;28;20435;-75
2021/05/30 01:07:41;;;;;;;11.87;7.37;;;7.10;99.90;;;;;;5051824;28;20516;-75
2021/05/30 01:10:20;;;;;;;11.27;7.13;;;7.00;99.90;;;;;;5051507;28;20192;-75
2021/05/30 01:12:50;;;;;;;13.43;9.40;;;7.00;99.90;;;;;;5046841;28;20986;-75
2021/05/30 01:15:16;;;;;;;8.43;6.70;;;7.00;99.90;;;;;;5048098;28;20417;-76
2021/05/30 01:17:43;;;;;;;9.30;7.63;;;7.00;99.90;;;;;;5048223;28;20464;-76
2021/05/30 01:20:14;;;;;;;11.37;8.40;;;6.90;99.90;;;;;;5053698;28;20912;-75
2021/05/30 01:22:40;;;;;;;15.67;9.60;;;6.90;99.90;;;;;;5049650;28;20439;-75
2021/05/30 01:25:07;;;;;;;11.27;7.90;;;6.80;99.90;;;;;;5051124;28;20440;-76
2021/05/30 01:27:32;;;;;;;10.00;6.80;;;6.80;99.90;;;;;;5050989;28;20445;-75
2021/05/30 01:29:58;;;;;;;9.27;7.73;;;6.70;99.90;;;;;;5051801;28;20435;-75
2021/05/30 01:32:24;;;;;;;8.53;6.70;;;6.70;99.90;;;;;;5049084;28;20193;-75
2021/05/30 01:34:50;;;;;;;10.20;6.70;;;6.70;99.90;;;;;;5052077;28;20619;-75
2021/05/30 01:37:16;;;;;;;10.60;7.70;;;6.70;99.90;;;;;;5046890;28;20573;-76
2021/05/30 01:39:41;;;;;;;11.93;7.27;;;6.60;99.90;;;;;;5048257;28;20479;-75
2021/05/30 01:42:07;;;;;;;10.63;7.33;;;6.60;99.90;;;;;;5047192;28;20210;-75
2021/05/30 01:44:33;;;;;;;7.67;6.97;;;6.50;99.90;;;;;;5050495;28;20271;-75
2021/05/30 01:46:58;;;;;;;10.17;7.67;;;6.50;99.90;;;;;;5048363;28;20185;-76
2021/05/30 01:49:24;;;;;;;10.83;7.70;;;6.50;99.90;;;;;;5045686;28;20193;-76
2021/05/30 01:51:50;;;;;;;9.27;7.40;;;6.40;99.90;;;;;;5048905;28;20193;-75
2021/05/30 01:54:18;;;;;;;9.50;6.23;;;6.40;99.90;;;;;;5051899;28;20217;-75
2021/05/30 01:56:57;;;;;;;7.40;6.50;;;6.40;99.90;;;;;;5048082;28;20197;-75
2021/05/30 01:59:27;;;;;;;12.17;7.70;;;6.40;99.90;;;;;;5046915;28;20481;-75
2021/05/30 02:01:57;;;;;;;9.73;7.87;;;6.30;99.90;;;;;;5043485;28;20424;-76
2021/05/30 02:04:31;;;;;;;7.53;6.80;;;6.30;99.90;;;;;;5051030;28;20431;-75
2021/05/30 02:06:59;;;;;;;9.23;6.33;;;6.30;99.90;;;;;;5052404;28;20454;-75
2021/05/30 02:09:26;;;;;;;8.73;6.70;;;6.20;99.90;;;;;;5050599;28;20482;-75
2021/05/30 02:11:52;;;;;;;8.43;6.80;;;6.20;99.90;;;;;;5047514;28;20449;-75
2021/05/30 02:14:18;;;;;;;7.70;6.90;;;6.20;99.90;;;;;;5050136;28;22620;-75
2021/05/30 02:16:44;;;;;;;10.23;8.00;;;6.20;99.90;;;;;;5047968;28;20863;-75
2021/05/30 02:19:10;;;;;;;8.10;7.40;;;6.20;99.90;;;;;;5052031;28;20440;-75
2021/05/30 02:21:51;;;;;;;10.37;6.80;;;6.10;99.90;;;;;;5050170;28;20967;-75
2021/05/30 02:24:20;;;;;;;7.37;6.40;;;6.10;99.90;;;;;;5052956;28;20418;-75
2021/05/30 02:26:47;;;;;;;10.47;7.83;;;6.00;99.90;;;;;;5049563;28;20484;-76
2021/05/30 02:29:32;;;;;;;9.63;7.40;;;6.00;99.90;;;;;;5052692;28;20439;-75
2021/05/30 02:31:58;;;;;;;8.80;7.10;;;6.00;99.90;;;;;;5046554;28;20435;-76
2021/05/30 02:34:23;;;;;;;9.47;6.87;;;6.00;99.90;;;;;;5044900;28;20971;-75
2021/05/30 02:36:49;;;;;;;7.17;6.20;;;5.90;99.90;;;;;;5050387;28;20246;-75
2021/05/30 02:39:15;;;;;;;7.97;6.73;;;5.90;99.90;;;;;;5052054;28;20546;-76
2021/05/30 02:41:40;;;;;;;14.97;7.33;;;5.80;99.90;;;;;;5048617;28;20187;-76
2021/05/30 02:44:06;;;;;;;10.07;7.17;;;5.80;99.90;;;;;;5049816;28;20181;-76
2021/05/30 02:46:32;;;;;;;7.60;6.83;;;5.70;99.90;;;;;;5047622;28;20224;-76
2021/05/30 02:48:58;;;;;;;9.50;7.70;;;5.70;99.90;;;;;;5051777;28;20478;-76
2021/05/30 02:51:23;;;;;;;7.80;6.80;;;5.70;99.90;;;;;;5040253;28;20978;-75
2021/05/30 02:53:49;;;;;;;12.83;7.50;;;5.60;99.90;;;;;;5050742;28;20212;-76
2021/05/30 02:56:15;;;;;;;9.10;6.47;;;5.60;99.90;;;;;;5050979;28;20192;-76
2021/05/30 02:58:40;;;;;;;7.90;6.17;;;5.60;99.90;;;;;;5046940;28;20192;-75
2021/05/30 03:01:06;;;;;;;6.87;6.23;;;5.60;99.90;;;;;;5046200;28;20182;-75
2021/05/30 03:03:32;;;;;;;10.27;7.77;;;5.50;99.90;;;;;;5044039;28;20192;-76
2021/05/30 03:05:57;;;;;;;13.13;8.47;;;5.50;99.90;;;;;;5048859;28;20185;-75
2021/05/30 03:08:23;;;;;;;6.73;6.13;;;5.50;99.90;;;;;;5049917;28;20272;-75
2021/05/30 03:10:48;;;;;;;7.13;6.30;;;5.50;99.90;;;;;;5047067;28;20610;-75
2021/05/30 03:13:14;;;;;;;10.60;7.70;;;5.50;99.90;;;;;;5050161;28;20272;-75
2021/05/30 03:15:40;;;;;;;8.33;7.03;;;5.50;99.90;;;;;;5049775;28;20201;-75
2021/05/30 03:18:07;;;;;;;7.50;6.80;;;5.60;99.90;;;;;;5049748;28;20185;-75
2021/05/30 03:20:32;;;;;;;8.07;6.30;;;5.60;99.90;;;;;;5040383;28;20239;-76
2021/05/30 03:22:58;;;;;;;13.53;8.30;;;5.60;99.90;;;;;;5048315;28;20435;-75
2021/05/30 03:25:24;;;;;;;9.90;7.27;;;5.50;99.90;;;;;;5050441;28;20187;-75
2021/05/30 03:27:50;;;;;;;9.13;6.83;;;5.50;99.90;;;;;;5046647;28;20239;-76
2021/05/30 03:30:16;;;;;;;9.07;6.10;;;5.50;99.90;;;;;;5048625;28;20173;-76
2021/05/30 03:32:42;;;;;;;7.00;6.20;;;5.50;99.90;;;;;;5047142;28;20299;-76
2021/05/30 03:35:09;;;;;;;7.23;6.27;;;5.50;99.90;;;;;;5045614;28;20915;-76
2021/05/30 03:37:35;;;;;;;9.10;7.30;;;5.50;99.90;;;;;;5048198;28;20451;-76
2021/05/30 03:40:06;;;;;;;7.80;5.97;;;5.50;99.90;;;;;;5049503;28;20833;-75
2021/05/30 03:42:36;;;;;;;9.73;7.43;;;5.50;99.90;;;;;;5048618;28;20215;-76
2021/05/30 03:45:03;;;;;;;10.90;7.23;;;5.40;99.90;;;;;;5050331;28;20516;-76
2021/05/30 03:47:28;;;;;;;9.37;7.20;;;5.40;99.90;;;;;;5048977;28;20439;-75
2021/05/30 03:49:54;;;;;;;6.80;6.10;;;5.50;99.90;;;;;;5049732;28;20459;-76
2021/05/30 03:52:20;;;;;;;8.07;7.00;;;5.50;99.90;;;;;;5048931;28;20200;-76
2021/05/30 03:54:45;;;;;;;8.40;6.87;;;5.50;99.90;;;;;;5047713;28;20186;-76
2021/05/30 03:57:11;;;;;;;7.73;7.00;;;5.60;99.90;;;;;;5050319;28;20707;-76
2021/05/30 03:59:37;;;;;;;11.03;7.53;;;5.60;99.90;;;;;;5041707;28;20173;-76
2021/05/30 04:02:05;;;;;;;10.23;7.03;;;5.60;99.90;;;;;;5046185;28;20539;-75
2021/05/30 04:04:31;;;;;;;9.80;7.20;;;5.70;99.90;;;;;;5049228;28;21031;-75
2021/05/30 04:06:56;;;;;;;9.37;7.00;;;5.70;99.90;;;;;;5050706;28;20525;-76
2021/05/30 04:09:22;;;;;;;9.67;6.60;;;5.80;99.90;;;;;;5048225;28;20255;-76
2021/05/30 04:11:47;;;;;;;14.33;8.67;;;5.80;99.90;;;;;;5045568;28;20240;-75
2021/05/30 04:14:13;;;;;;;11.67;8.60;;;5.90;99.90;;;;;;5051463;28;20186;-75
2021/05/30 04:16:39;;;;;;;12.27;8.93;;;5.90;99.90;;;;;;5045293;28;20205;-76
2021/05/30 04:19:04;;;;;;;12.90;8.20;;;5.90;99.90;;;;;;5050260;28;20209;-76
2021/05/30 04:21:30;;;;;;;10.93;8.40;;;5.90;99.90;;;;;;5047438;28;20193;-76
2021/05/30 04:23:55;;;;;;;8.57;7.70;;;6.00;99.90;;;;;;5052707;28;20745;-76
2021/05/30 04:26:21;;;;;;;13.53;9.47;;;6.10;99.90;;;;;;5054102;28;20192;-76
2021/05/30 04:28:47;;;;;;;10.37;8.47;;;6.10;99.90;;;;;;5050617;28;20197;-76
2021/05/30 04:31:12;;;;;;;8.83;7.20;;;6.10;99.90;;;;;;5049112;28;20193;-76
2021/05/30 04:33:38;;;;;;;10.97;7.50;;;6.20;99.90;;;;;;5051878;28;20623;-76
2021/05/30 04:36:04;;;;;;;10.80;8.00;;;6.20;99.90;;;;;;5048080;28;20652;-76
2021/05/30 04:38:30;;;;;;;9.50;8.30;;;6.30;99.90;;;;;;5052363;28;20195;-76
2021/05/30 04:40:58;;;;;;;14.80;8.87;;;6.40;99.90;;;;;;5052898;28;20581;-76
2021/05/30 04:43:23;;;;;;;11.60;8.50;;;6.40;99.90;;;;;;5047503;28;20470;-76
2021/05/30 04:45:49;;;;;;;17.00;8.67;;;6.50;99.90;;;;;;5049553;28;20435;-76
2021/05/30 04:48:15;;;;;;;12.80;8.40;;;6.60;99.90;;;;;;5043086;28;20181;-76
2021/05/30 04:50:40;;;;;;;11.43;8.20;;;6.70;99.90;;;;;;5050297;28;20185;-76
2021/05/30 04:53:06;;;;;;;12.43;9.60;;;6.70;99.90;;;;;;5050964;28;20282;-76
2021/05/30 04:55:31;;;;;;;11.80;8.30;;;6.80;99.90;;;;;;5051789;28;20271;-75
2021/05/30 04:57:57;;;;;;;14.30;9.37;;;6.80;99.90;;;;;;5051394;28;20182;-76
2021/05/30 05:00:23;;;;;;;12.77;9.27;;;6.90;99.90;;;;;;5050592;28;20320;-75
2021/05/30 05:02:49;;;;;;;10.60;8.90;;;6.90;99.90;;;;;;5050285;28;20182;-76
2021/05/30 05:05:14;;;;;;;15.53;10.00;;;7.00;99.90;;;;;;5053120;28;20271;-76
2021/05/30 05:07:42;;;;;;;19.77;13.47;;;7.00;99.90;;;;;;5047833;28;20185;-76
2021/05/30 05:10:08;;;;;;;18.60;13.03;;;7.20;99.90;;;;;;5051386;28;20183;-76
2021/05/30 05:12:35;;;;;;;22.00;15.57;;;7.20;99.90;;;;;;5051339;28;20530;-75
2021/05/30 05:15:01;;;;;;;23.87;13.90;;;7.40;99.90;;;;;;5051423;28;20441;-76
2021/05/30 05:17:26;;;;;;;27.80;14.37;;;7.40;99.90;;;;;;5051863;28;20458;-76
2021/05/30 05:19:53;;;;;;;17.63;13.13;;;7.50;99.90;;;;;;5050548;28;20467;-76
2021/05/30 05:22:19;;;;;;;18.10;12.70;;;7.60;99.90;;;;;;5050190;28;20181;-76
2021/05/30 05:24:44;;;;;;;27.60;15.20;;;7.60;99.90;;;;;;5052115;28;20489;-76
2021/05/30 05:27:11;;;;;;;22.57;14.03;;;7.80;99.90;;;;;;5051387;28;20266;-76
2021/05/30 05:29:37;;;;;;;27.40;14.60;;;7.80;99.90;;;;;;5049975;28;20884;-75
2021/05/30 05:32:03;;;;;;;22.67;14.73;;;7.90;99.90;;;;;;5047410;28;20439;-75
2021/05/30 05:34:29;;;;;;;26.23;14.17;;;8.00;99.90;;;;;;5050941;28;20209;-76
2021/05/30 05:36:55;;;;;;;23.00;15.33;;;8.10;99.90;;;;;;5047613;28;20494;-75
2021/05/30 05:39:20;;;;;;;25.53;15.20;;;8.00;99.90;;;;;;5050518;28;20190;-75
2021/05/30 05:41:48;;;;;;;24.13;15.10;;;8.00;99.90;;;;;;5046995;28;20255;-75
2021/05/30 05:44:14;;;;;;;32.07;14.57;;;8.10;99.90;;;;;;5048827;28;20196;-75
2021/05/30 05:46:40;;;;;;;19.77;13.90;;;8.10;99.90;;;;;;5049897;28;20431;-76
2021/05/30 05:49:05;;;;;;;28.43;15.37;;;8.20;99.90;;;;;;5050478;28;20185;-76
2021/05/30 05:51:31;;;;;;;27.87;15.53;;;8.20;99.90;;;;;;5048781;28;20215;-76
2021/05/30 05:53:57;;;;;;;28.57;17.17;;;8.30;99.90;;;;;;5050801;28;20246;-76
2021/05/30 05:56:22;;;;;;;26.37;16.47;;;8.40;99.90;;;;;;5042635;28;20232;-75
2021/05/30 05:58:48;;;;;;;28.53;16.10;;;8.40;99.90;;;;;;5050013;28;20268;-76
2021/05/30 06:01:14;;;;;;;30.90;16.47;;;8.40;99.90;;;;;;5045522;28;20182;-76
2021/05/30 06:03:39;;;;;;;28.17;16.10;;;8.40;99.90;;;;;;5046540;28;21357;-76
2021/05/30 06:06:05;;;;;;;23.70;15.07;;;8.60;99.90;;;;;;5049882;28;20177;-76
2021/05/30 06:08:31;;;;;;;27.63;15.83;;;8.60;99.90;;;;;;5048693;28;20184;-76
2021/05/30 06:10:57;;;;;;;27.90;16.10;;;8.60;99.90;;;;;;5061534;28;20177;-76
2021/05/30 06:13:23;;;;;;;29.83;18.33;;;8.80;99.90;;;;;;5046923;28;20458;-76
2021/05/30 06:15:49;;;;;;;32.80;18.73;;;9.00;99.90;;;;;;5046924;28;20455;-75
2021/05/30 06:18:16;;;;;;;23.57;14.63;;;9.10;99.90;;;;;;5048225;28;20493;-75
2021/05/30 06:20:44;;;;;;;28.33;18.23;;;9.20;99.90;;;;;;5047026;28;20169;-75
2021/05/30 06:23:10;;;;;;;34.53;18.10;;;9.40;99.90;;;;;;5049543;28;20439;-75
2021/05/30 06:25:37;;;;;;;31.73;16.27;;;9.50;99.90;;;;;;5049349;28;20469;-75
2021/05/30 06:28:03;;;;;;;33.30;18.13;;;9.70;99.90;;;;;;5050499;28;20768;-75
2021/05/30 06:30:34;;;;;;;31.07;17.47;;;9.80;99.90;;;;;;5050285;28;20434;-75
2021/05/30 06:33:00;;;;;;;26.03;14.07;;;10.00;99.90;;;;;;5045677;28;20484;-76
2021/05/30 06:35:28;;;;;;;34.83;17.53;;;10.10;99.90;;;;;;5042142;28;20522;-75
2021/05/30 06:37:54;;;;;;;25.97;13.87;;;10.20;99.90;;;;;;5043511;28;20185;-75
2021/05/30 06:40:20;;;;;;;23.67;13.57;;;10.40;99.90;;;;;;5044754;28;20810;-76
2021/05/30 06:42:46;;;;;;;24.77;14.27;;;10.50;99.90;;;;;;5049799;28;20173;-75
2021/05/30 06:45:13;;;;;;;29.23;15.43;;;10.60;99.90;;;;;;5048514;28;20373;-75
2021/05/30 06:47:38;;;;;;;29.77;16.63;;;10.60;99.90;;;;;;5045546;28;20435;-75
2021/05/30 06:50:05;;;;;;;23.63;12.90;;;10.70;99.90;;;;;;5047670;28;20920;-76
2021/05/30 06:52:30;;;;;;;22.13;13.77;;;10.70;99.90;;;;;;5043448;28;20217;-75
2021/05/30 06:54:56;;;;;;;27.07;14.33;;;10.70;99.90;;;;;;5045984;28;21026;-75
2021/05/30 06:57:22;;;;;;;22.83;13.27;;;10.90;99.90;;;;;;5049774;28;20637;-75
2021/05/30 06:59:48;;;;;;;25.00;13.90;;;10.90;99.90;;;;;;5046299;28;20439;-76
2021/05/30 07:02:15;;;;;;;25.30;12.40;;;10.90;99.90;;;;;;5046133;28;20247;-76
2021/05/30 07:04:41;;;;;;;23.33;13.13;;;10.90;99.90;;;;;;5050066;28;20442;-75
2021/05/30 07:07:06;;;;;;;20.77;14.37;;;11.00;99.90;;;;;;5047567;28;20439;-76
2021/05/30 07:09:32;;;;;;;24.03;14.07;;;11.10;99.90;;;;;;5047321;28;20452;-76
2021/05/30 07:11:57;;;;;;;24.10;13.23;;;11.10;99.90;;;;;;5046685;28;20201;-76
2021/05/30 07:14:23;;;;;;;18.70;11.60;;;11.20;99.90;;;;;;5045404;28;20622;-75
2021/05/30 07:16:49;;;;;;;17.53;12.10;;;11.30;99.90;;;;;;5043893;28;20229;-75
2021/05/30 07:19:15;;;;;;;23.13;14.10;;;11.40;99.90;;;;;;5049181;28;20188;-76
2021/05/30 07:21:40;;;;;;;21.30;13.30;;;11.40;99.90;;;;;;5045620;28;20281;-77
2021/05/30 07:24:06;;;;;;;22.93;13.77;;;11.50;99.90;;;;;;5043493;28;20173;-75
2021/05/30 07:26:34;;;;;;;22.03;13.53;;;11.50;99.90;;;;;;5045226;28;20192;-76
2021/05/30 07:29:00;;;;;;;24.97;13.20;;;11.50;99.90;;;;;;5049861;28;20428;-76
2021/05/30 07:31:25;;;;;;;21.00;13.57;;;11.70;99.90;;;;;;5047397;28;20760;-76
2021/05/30 07:33:51;;;;;;;23.80;14.73;;;11.70;99.90;;;;;;5043680;28;20598;-76
2021/05/30 07:36:17;;;;;;;21.30;13.27;;;11.70;99.90;;;;;;5042760;28;20279;-75
2021/05/30 07:38:42;;;;;;;31.60;15.27;;;11.70;99.90;;;;;;5043352;28;20181;-76
2021/05/30 07:41:08;;;;;;;25.93;16.30;;;11.80;99.90;;;;;;5041490;28;20558;-76
2021/05/30 07:43:34;;;;;;;25.13;15.30;;;11.80;99.90;;;;;;5049410;28;20235;-75
2021/05/30 07:45:59;;;;;;;26.57;16.57;;;11.70;99.90;;;;;;5045130;28;20194;-75
2021/05/30 07:48:25;;;;;;;23.00;14.50;;;11.60;99.90;;;;;;5045733;28;20185;-76
2021/05/30 07:50:51;;;;;;;23.20;15.40;;;11.70;99.90;;;;;;5043463;28;20219;-75
2021/05/30 07:53:16;;;;;;;23.30;15.13;;;11.70;99.90;;;;;;5046174;28;20181;-75
2021/05/30 07:55:43;;;;;;;25.70;17.60;;;11.80;99.90;;;;;;5040285;28;20185;-75
2021/05/30 07:58:09;;;;;;;28.47;15.43;;;11.80;99.90;;;;;;5049596;28;20173;-75
2021/05/30 08:00:35;;;;;;;24.60;14.77;;;11.90;99.90;;;;;;5047704;28;20461;-76
2021/05/30 08:03:00;;;;;;;20.67;14.13;;;11.90;99.90;;;;;;5048551;28;20497;-76
2021/05/30 08:05:26;;;;;;;26.83;16.27;;;11.90;99.90;;;;;;5052471;28;20185;-76
2021/05/30 08:07:52;;;;;;;22.53;15.17;;;12.00;99.90;;;;;;5054488;28;20188;-76
2021/05/30 08:10:20;;;;;;;27.87;15.70;;;12.10;99.90;;;;;;5047470;28;20208;-76
2021/05/30 08:12:46;;;;;;;28.67;15.90;;;12.10;99.90;;;;;;5052305;28;20904;-76
2021/05/30 08:15:12;;;;;;;24.63;12.80;;;12.00;99.90;;;;;;5047346;28;20434;-76
2021/05/30 08:17:38;;;;;;;19.50;14.00;;;11.90;99.90;;;;;;5049731;28;20208;-76
2021/05/30 08:20:07;;;;;;;21.27;14.20;;;11.90;99.90;;;;;;5052568;28;20529;-76
2021/05/30 08:22:33;;;;;;;21.87;14.27;;;12.00;99.90;;;;;;5053389;28;20438;-76
2021/05/30 08:24:59;;;;;;;24.70;14.80;;;11.90;99.90;;;;;;5051345;28;20432;-76
2021/05/30 08:27:25;;;;;;;22.47;15.03;;;12.00;99.90;;;;;;5053047;28;20184;-76
2021/05/30 08:29:51;;;;;;;22.47;15.30;;;12.10;99.90;;;;;;5053168;28;20454;-75
2021/05/30 08:32:17;;;;;;;17.83;13.70;;;12.30;99.90;;;;;;5048040;28;20618;-76
2021/05/30 08:34:44;;;;;;;18.13;13.37;;;12.40;99.90;;;;;;5052980;28;20189;-76
2021/05/30 08:37:10;;;;;;;19.70;13.67;;;12.40;99.90;;;;;;5051342;28;20545;-76
2021/05/30 08:39:36;;;;;;;22.00;14.10;;;12.60;99.90;;;;;;5051255;28;20526;-76
2021/05/30 08:42:02;;;;;;;19.27;14.50;;;12.60;99.90;;;;;;5047898;28;20181;-76
2021/05/30 08:44:27;;;;;;;21.10;13.93;;;12.60;99.90;;;;;;5053739;28;20268;-76
2021/05/30 08:46:53;;;;;;;19.90;14.33;;;12.60;99.90;;;;;;5052631;28;20169;-76
2021/05/30 08:49:19;;;;;;;20.30;14.33;;;12.70;99.90;;;;;;5049991;28;20210;-76
2021/05/30 08:51:44;;;;;;;23.00;13.13;;;12.70;99.90;;;;;;5047381;28;20223;-76
2021/05/30 08:54:19;;;;;;;23.00;16.20;;;12.80;99.90;;;;;;5054086;28;20189;-76
2021/05/30 08:56:47;;;;;;;21.40;15.50;;;13.00;99.90;;;;;;5053113;28;20232;-76
2021/05/30 08:59:27;;;;;;;18.63;13.50;;;13.10;99.90;;;;;;5052372;28;20896;-75
2021/05/30 09:01:54;;;;;;;19.87;13.50;;;13.10;99.90;;;;;;5067165;28;20469;-76
2021/05/30 09:04:33;;;;;;;22.70;15.83;;;13.20;99.90;;;;;;5051219;28;20518;-76
2021/05/30 09:06:59;;;;;;;18.03;13.73;;;13.30;99.90;;;;;;5043525;28;20466;-76
2021/05/30 09:09:25;;;;;;;24.73;17.57;;;13.50;99.90;;;;;;5048348;28;20436;-75
2021/05/30 09:11:52;;;;;;;20.93;15.03;;;13.50;99.90;;;;;;5045800;28;20177;-76
2021/05/30 09:14:24;;;;;;;24.87;16.30;;;13.50;99.90;;;;;;5045840;28;20615;-76
2021/05/30 09:16:54;;;;;;;19.33;14.60;;;13.50;99.90;;;;;;5045046;28;20451;-76
2021/05/30 09:19:44;;;;;;;23.70;16.23;;;13.60;99.90;;;;;;5045891;28;20428;-76
2021/05/30 09:22:13;;;;;;;19.63;14.97;;;13.70;99.90;;;;;;5046710;28;20423;-76
2021/05/30 09:24:38;;;;;;;22.10;17.13;;;13.80;99.90;;;;;;5048698;28;20427;-76
2021/05/30 09:27:08;;;;;;;21.60;17.20;;;13.90;99.90;;;;;;5048321;28;20766;-76
2021/05/30 09:29:34;;;;;;;23.43;16.23;;;13.90;99.90;;;;;;5048208;28;20208;-75
2021/05/30 09:32:01;;;;;;;22.50;16.37;;;14.10;99.90;;;;;;5044652;28;20524;-75
2021/05/30 09:34:31;;;;;;;20.87;14.60;;;14.10;99.90;;;;;;5049039;28;20738;-77
2021/05/30 09:36:57;;;;;;;18.63;14.13;;;14.20;99.90;;;;;;5050173;28;20444;-76
2021/05/30 09:39:43;;;;;;;18.70;14.33;;;14.20;99.90;;;;;;5048326;28;20424;-76
2021/05/30 09:42:33;;;;;;;20.93;15.17;;;14.40;99.90;;;;;;5046193;28;20427;-75
2021/05/30 09:45:08;;;;;;;18.77;14.33;;;14.60;99.90;;;;;;5044838;28;20408;-76
2021/05/30 09:47:45;;;;;;;21.33;15.40;;;14.70;99.90;;;;;;5043782;28;20442;-75
2021/05/30 09:50:19;;;;;;;20.40;16.20;;;14.80;99.90;;;;;;5043220;28;20465;-75
2021/05/30 09:52:47;;;;;;;19.80;13.87;;;14.90;99.90;;;;;;5038592;28;21029;-75
2021/05/30 09:55:26;;;;;;;14.83;11.20;;;14.90;99.90;;;;;;5044769;28;20446;-75
2021/05/30 09:58:19;;;;;;;16.60;12.63;;;15.10;99.90;;;;;;5051817;28;20459;-75
2021/05/30 10:01:01;;;;;;;20.83;14.60;;;15.60;99.90;;;;;;5050044;28;20433;-75
2021/05/30 10:03:28;;;;;;;17.40;11.83;;;15.90;99.90;;;;;;5050122;28;20428;-76
2021/05/30 10:05:54;;;;;;;12.70;11.40;;;15.90;99.90;;;;;;5046479;28;20437;-76
2021/05/30 10:08:22;;;;;;;16.20;11.60;;;15.90;99.90;;;;;;5047466;28;20440;-75
2021/05/30 10:10:48;;;;;;;13.00;10.30;;;16.00;99.90;;;;;;5046846;28;20491;-76
2021/05/30 10:13:14;;;;;;;15.90;10.63;;;16.00;99.90;;;;;;5047008;28;20442;-75
2021/05/30 10:15:40;;;;;;;12.33;9.80;;;16.10;99.90;;;;;;5049890;28;20427;-75
2021/05/30 10:18:22;;;;;;;11.53;10.30;;;16.30;99.90;;;;;;5050204;28;20837;-76
2021/05/30 10:20:50;;;;;;;11.47;9.43;;;16.60;99.90;;;;;;5044962;28;20965;-75
2021/05/30 10:23:18;;;;;;;12.97;9.10;;;16.70;99.90;;;;;;5038080;28;20437;-75
2021/05/30 10:25:44;;;;;;;11.70;10.17;;;16.80;99.90;;;;;;5045107;28;20568;-75
2021/05/30 10:28:21;;;;;;;14.23;10.13;;;17.00;99.90;;;;;;5043876;28;21075;-74
2021/05/30 10:30:49;;;;;;;9.67;8.10;;;17.10;99.90;;;;;;5046588;28;20416;-75
2021/05/30 10:33:23;;;;;;;14.30;9.17;;;17.20;99.90;;;;;;5051876;28;20454;-76
2021/05/30 10:35:50;;;;;;;9.30;8.30;;;17.40;99.90;;;;;;5047451;28;20443;-75
2021/05/30 10:38:35;;;;;;;10.10;7.20;;;17.40;99.90;;;;;;5051781;28;20455;-77
2021/05/30 10:41:22;;;;;;;8.80;7.87;;;17.60;99.90;;;;;;5051782;28;20874;-77
2021/05/30 10:43:48;;;;;;;11.00;7.63;;;17.80;99.90;;;;;;5047178;28;20420;-77
2021/05/30 10:46:14;;;;;;;10.40;8.20;;;17.80;99.90;;;;;;5048910;28;20498;-75
2021/05/30 10:48:41;;;;;;;10.80;8.07;;;17.80;99.90;;;;;;5048203;28;20544;-75
2021/05/30 10:51:29;;;;;;;10.13;7.10;;;17.90;99.90;;;;;;5047170;28;20458;-75
2021/05/30 10:54:08;;;;;;;11.60;7.17;;;18.20;99.90;;;;;;5049961;28;20816;-75
2021/05/30 10:56:54;;;;;;;8.37;5.70;;;18.40;99.90;;;;;;5050393;28;20462;-76
2021/05/30 10:59:23;;;;;;;8.00;5.97;;;18.50;99.90;;;;;;5046617;28;20419;-75
2021/05/30 11:01:50;;;;;;;7.50;5.50;;;18.50;99.90;;;;;;5042623;28;20457;-75
2021/05/30 11:06:55;;;;;;;7.63;6.90;;;18.90;99.90;;;;;;5038976;28;20435;-76
2021/05/30 11:09:22;;;;;;;7.97;5.60;;;18.90;99.90;;;;;;5043753;28;20428;-76
2021/05/30 11:12:18;;;;;;;5.27;4.50;;;18.90;99.90;;;;;;5044923;28;20431;-76
2021/05/30 11:15:13;;;;;;;5.13;4.63;;;18.90;99.90;;;;;;5045090;28;20754;-75
2021/05/30 11:17:49;;;;;;;4.30;3.87;;;19.00;99.90;;;;;;5046290;28;21041;-76
2021/05/30 11:20:18;;;;;;;4.57;4.07;;;19.20;99.90;;;;;;5037719;28;20427;-76
2021/05/30 11:22:47;;;;;;;11.73;9.23;;;19.30;99.90;;;;;;5044051;28;21516;-75
2021/05/30 11:25:16;;;;;;;4.80;4.40;;;19.30;99.90;;;;;;5041706;28;20833;-75
2021/05/30 11:27:52;;;;;;;4.60;4.20;;;19.50;99.90;;;;;;5042764;28;20497;-77
2021/05/30 11:30:59;;;;;;;5.70;5.17;;;19.80;99.90;;;;;;5045901;28;20427;-75
2021/05/30 11:33:25;;;;;;;5.80;5.17;;;19.90;99.90;;;;;;5043746;28;20447;-75
2021/05/30 11:35:56;;;;;;;4.37;3.97;;;20.10;99.90;;;;;;5051678;28;20989;-75
2021/05/30 11:38:32;;;;;;;4.30;4.00;;;20.20;99.90;;;;;;5051129;28;20438;-76
2021/05/30 11:41:11;;;;;;;3.60;3.30;;;20.30;99.90;;;;;;5050742;28;20462;-75
2021/05/30 11:43:37;;;;;;;5.97;4.07;;;20.40;99.90;;;;;;5053984;28;20998;-75
2021/05/30 11:46:13;;;;;;;4.50;4.10;;;20.50;99.90;;;;;;5048387;28;20522;-76
2021/05/30 11:48:42;;;;;;;5.70;4.10;;;20.50;99.90;;;;;;5053679;28;20654;-75
2021/05/30 11:51:08;;;;;;;5.73;4.03;;;20.70;99.90;;;;;;5049754;28;20598;-76
2021/05/30 11:53:35;;;;;;;5.63;4.03;;;20.80;99.90;;;;;;5053953;28;21032;-75
2021/05/30 11:56:06;;;;;;;7.00;4.80;;;20.50;99.90;;;;;;5049899;28;20487;-76
2021/05/30 11:58:32;;;;;;;4.60;4.10;;;20.50;99.90;;;;;;5051850;28;20491;-76
2021/05/30 12:01:00;;;;;;;5.40;4.10;;;20.60;99.90;;;;;;5052073;28;20455;-75
2021/05/30 12:03:27;;;;;;;5.87;5.23;;;20.80;99.90;;;;;;5050278;28;20497;-75
2021/05/30 12:06:00;;;;;;;5.57;5.07;;;21.00;99.90;;;;;;5027881;28;20436;-75
2021/05/30 12:08:27;;;;;;;5.33;4.87;;;21.10;99.90;;;;;;5052147;28;20464;-75
2021/05/30 12:10:57;;;;;;;5.43;3.90;;;21.00;99.90;;;;;;5047557;28;20562;-75
2021/05/30 12:13:36;;;;;;;4.20;3.70;;;21.20;99.90;;;;;;5050595;28;20466;-75
2021/05/30 12:16:19;;;;;;;5.63;3.87;;;21.50;99.90;;;;;;5040011;28;20460;-75
2021/05/30 12:18:56;;;;;;;4.20;3.80;;;21.70;99.90;;;;;;5050474;28;20443;-75
2021/05/30 12:21:24;;;;;;;4.20;3.90;;;22.00;99.90;;;;;;5046060;28;20470;-75
2021/05/30 12:23:51;;;;;;;5.33;3.50;;;22.10;99.90;;;;;;5044432;28;20812;-73
2021/05/30 12:26:17;;;;;;;5.53;3.63;;;22.10;99.90;;;;;;5039836;28;20519;-74
2021/05/30 12:28:44;;;;;;;4.57;4.17;;;22.10;99.90;;;;;;5044231;28;20435;-75
2021/05/30 12:31:20;;;;;;;3.63;3.33;;;22.20;99.90;;;;;;5044175;28;20431;-75
2021/05/30 12:34:05;;;;;;;6.57;3.57;;;22.40;99.90;;;;;;5050644;28;21231;-75
2021/05/30 12:36:38;;;;;;;4.63;3.63;;;22.40;99.90;;;;;;5050967;28;20449;-75
2021/05/30 12:39:23;;;;;;;4.60;4.00;;;22.50;99.90;;;;;;5054009;28;20448;-76
2021/05/30 12:41:51;;;;;;;4.17;3.57;;;22.30;99.90;;;;;;5051178;28;20432;-76
2021/05/30 12:44:21;;;;;;;4.70;4.10;;;22.40;99.90;;;;;;5052328;28;20422;-76
2021/05/30 12:47:09;;;;;;;4.10;3.70;;;22.30;99.90;;;;;;5051144;28;20507;-76
2021/05/30 12:49:38;;;;;;;4.37;4.00;;;22.30;99.90;;;;;;5052127;28;20498;-76